Norco, LA

4:19 PM CDT on April 19, 2015 (GMT -0500)
Norco LA | | Change Station
CLOSE
Current Station
Personal Weather Station
Location: Norco, LA
Elevation: 4 ft
Nearby Weather Stations

Elev 4 ft 30.02 °N, 90.41 °W | Updated 14 seconds ago

Clear
Clear
85.7 °F
Feels Like 90 °F
N
4.0
Wind Variable Wind from West
Gusts 4.0 mph

Today
High -- | Low -- °F
--% Chance of Precip.
Yesterday
High -- | Low -- °F
Precip. -- in
6:30 AM 7:31 PM
New Moon, 2% visible
Pressure 29.78 in
Visibility 10.0 miles
Clouds Few 3000 ft
Heat Index 90 °F
Dew Point 70 °F
Humidity 59%
Rainfall 0.00 in
Snow Depth Not available.
UV 7 out of 12
Pollen 6.50 out of 12
Air Quality Not available.
Flu Activity Local Activity
METAR KMSY 192053Z 26011KT 10SM FEW030 29/16 A2977 RMK AO2 SLP084 T02890161 57017 $

More Conditions Fewer Conditions

Pressure 29.78 in
Visibility 10.0 miles
Clouds Few 3000 ft
Heat Index 90 °F
Dew Point 70 °F
Humidity 59%
Rainfall 0.00 in
Snow Depth Not available.
UV 7 out of 12
Pollen 6.50 out of 12
Air Quality Not available.
Flu Activity Local Activity
METAR KMSY 192053Z 26011KT 10SM FEW030 29/16 A2977 RMK AO2 SLP084 T02890161 57017 $

More Conditions Fewer Conditions

10-Day Weather Forecast

Almanac

Astronomy

Apr. 19, 2015 Rise Set
Actual Time
Civil Twilight
Nautical Twilight
Astronomical Twilight
Moon
Length of Visible Light
Length of Day
Tomorrow will be .
, % of the Moon is Illuminated

Today's Extremes

State Highs State Lows

Community

WunderPhotos

Upload Photos

1,814,985 photos uploaded!

WunderBlogs® & News

Nearby

Air Quality

  Air Quality AQ Index Pollutant
Not available.

Snow Depth

Station Depth Elevation

Earthquake Activity

City Distance Mag. Time & Date
Minimum magnitude displayed is 2.5.

Coastal Water Temperatures

Place Temperature

Stations

Nearby Weather Stations

Station Location Temp. Windchill Dew Point Humidity Wind Precip. Elev Updated Type